Marmaduke, Arkansas
Current Conditions -  °F | °C
As of 8:35 AM on Sunday 23 Nov 2014 (Local Time) from K4M9 Reporting Station
Light Rain Light Rain  
Wind Chill: 55°   Ceiling: 1300
Heat Index: 55°   Visibility: 3mi
Dew Point: 55°   Wind: 10mph
Humidity: 100%   Direction: 130°SE
Pressure: 29.68"   Gusts: NA
Location:  36.19°N, 90.38°W
Report Text: K4M9 231435Z AUTO 13009KT 3SM -RA OVC013 13/13 A2968 RMK AO2
Loading
Personal Weather Stations






























Interactive Weather Map New forecast layout! Learn more

10-Day Weather Forecast

Advertisements
Track Severe Weather on mobile